sensor_id;sensor_type;location;lat;lon;timestamp;temperature;humidity
83808;SHT31;73824;40.292;17.998;2024-03-22T00:01:55;10.82;76.16
83808;SHT31;73824;40.292;17.998;2024-03-22T00:04:21;10.82;76.51
83808;SHT31;73824;40.292;17.998;2024-03-22T00:06:48;10.86;76.22
83808;SHT31;73824;40.292;17.998;2024-03-22T00:09:15;10.89;76.21
83808;SHT31;73824;40.292;17.998;2024-03-22T00:11:41;10.77;76.13
83808;SHT31;73824;40.292;17.998;2024-03-22T00:14:07;10.68;76.68
83808;SHT31;73824;40.292;17.998;2024-03-22T00:16:33;10.70;76.67
83808;SHT31;73824;40.292;17.998;2024-03-22T00:18:59;10.73;76.81
83808;SHT31;73824;40.292;17.998;2024-03-22T00:21:25;10.77;77.25
83808;SHT31;73824;40.292;17.998;2024-03-22T00:23:50;10.86;77.15
83808;SHT31;73824;40.292;17.998;2024-03-22T00:26:16;10.86;76.84
83808;SHT31;73824;40.292;17.998;2024-03-22T00:28:41;10.79;76.95
83808;SHT31;73824;40.292;17.998;2024-03-22T00:31:08;10.97;76.57
83808;SHT31;73824;40.292;17.998;2024-03-22T00:33:34;10.82;76.86
83808;SHT31;73824;40.292;17.998;2024-03-22T00:36:00;10.82;77.65
83808;SHT31;73824;40.292;17.998;2024-03-22T00:38:26;10.79;77.78
83808;SHT31;73824;40.292;17.998;2024-03-22T00:40:51;10.79;77.85
83808;SHT31;73824;40.292;17.998;2024-03-22T00:43:17;10.79;78.19
83808;SHT31;73824;40.292;17.998;2024-03-22T00:45:43;10.90;77.95
83808;SHT31;73824;40.292;17.998;2024-03-22T00:48:08;10.86;78.08
83808;SHT31;73824;40.292;17.998;2024-03-22T00:50:34;10.83;78.49
83808;SHT31;73824;40.292;17.998;2024-03-22T00:53:00;10.82;78.64
83808;SHT31;73824;40.292;17.998;2024-03-22T00:55:28;10.77;78.80
83808;SHT31;73824;40.292;17.998;2024-03-22T00:57:54;10.80;78.39
83808;SHT31;73824;40.292;17.998;2024-03-22T01:00:19;10.73;78.52
83808;SHT31;73824;40.292;17.998;2024-03-22T01:02:45;10.69;79.01
83808;SHT31;73824;40.292;17.998;2024-03-22T01:05:11;10.69;79.29
83808;SHT31;73824;40.292;17.998;2024-03-22T01:07:37;10.73;78.96
83808;SHT31;73824;40.292;17.998;2024-03-22T01:10:06;10.69;79.39
83808;SHT31;73824;40.292;17.998;2024-03-22T01:12:31;10.69;79.53
83808;SHT31;73824;40.292;17.998;2024-03-22T01:14:57;10.63;79.56
83808;SHT31;73824;40.292;17.998;2024-03-22T01:17:23;10.63;79.83
83808;SHT31;73824;40.292;17.998;2024-03-22T01:19:49;10.62;79.90
83808;SHT31;73824;40.292;17.998;2024-03-22T01:22:15;10.58;80.02
83808;SHT31;73824;40.292;17.998;2024-03-22T01:24:41;10.70;79.85
83808;SHT31;73824;40.292;17.998;2024-03-22T01:27:06;10.66;79.40
83808;SHT31;73824;40.292;17.998;2024-03-22T01:29:32;10.59;79.05
83808;SHT31;73824;40.292;17.998;2024-03-22T01:31:58;10.62;79.04
83808;SHT31;73824;40.292;17.998;2024-03-22T01:34:24;10.58;79.12
83808;SHT31;73824;40.292;17.998;2024-03-22T01:36:53;10.59;79.32
83808;SHT31;73824;40.292;17.998;2024-03-22T01:39:20;10.53;79.31
83808;SHT31;73824;40.292;17.998;2024-03-22T01:41:49;10.45;78.47
83808;SHT31;73824;40.292;17.998;2024-03-22T01:44:14;10.24;78.34
83808;SHT31;73824;40.292;17.998;2024-03-22T01:46:41;10.11;78.05
83808;SHT31;73824;40.292;17.998;2024-03-22T01:49:12;10.04;78.21
83808;SHT31;73824;40.292;17.998;2024-03-22T01:51:42;10.00;78.64
83808;SHT31;73824;40.292;17.998;2024-03-22T01:54:09;10.04;78.52
83808;SHT31;73824;40.292;17.998;2024-03-22T01:56:39;10.01;78.49
83808;SHT31;73824;40.292;17.998;2024-03-22T01:59:06;10.03;78.69
83808;SHT31;73824;40.292;17.998;2024-03-22T02:01:32;10.05;78.69
83808;SHT31;73824;40.292;17.998;2024-03-22T02:03:58;10.10;78.60
83808;SHT31;73824;40.292;17.998;2024-03-22T02:06:24;10.05;78.34
83808;SHT31;73824;40.292;17.998;2024-03-22T02:08:50;10.01;78.72
83808;SHT31;73824;40.292;17.998;2024-03-22T02:11:15;10.04;78.59
83808;SHT31;73824;40.292;17.998;2024-03-22T02:13:41;10.03;78.55
83808;SHT31;73824;40.292;17.998;2024-03-22T02:16:08;9.90;78.61
83808;SHT31;73824;40.292;17.998;2024-03-22T02:18:34;9.86;78.80
83808;SHT31;73824;40.292;17.998;2024-03-22T02:20:59;9.84;78.74
83808;SHT31;73824;40.292;17.998;2024-03-22T02:23:35;9.82;78.85
83808;SHT31;73824;40.292;17.998;2024-03-22T02:26:01;9.80;78.76
83808;SHT31;73824;40.292;17.998;2024-03-22T02:28:27;9.83;79.10
83808;SHT31;73824;40.292;17.998;2024-03-22T02:30:53;9.82;79.22
83808;SHT31;73824;40.292;17.998;2024-03-22T02:33:19;9.84;79.39
83808;SHT31;73824;40.292;17.998;2024-03-22T02:35:47;9.86;79.83
83808;SHT31;73824;40.292;17.998;2024-03-22T02:38:13;9.87;79.99
83808;SHT31;73824;40.292;17.998;2024-03-22T02:40:38;9.84;80.38
83808;SHT31;73824;40.292;17.998;2024-03-22T02:43:04;9.83;80.81
83808;SHT31;73824;40.292;17.998;2024-03-22T02:45:31;9.86;80.96
83808;SHT31;73824;40.292;17.998;2024-03-22T02:47:56;9.89;80.95
83808;SHT31;73824;40.292;17.998;2024-03-22T02:50:22;9.97;80.95
83808;SHT31;73824;40.292;17.998;2024-03-22T02:52:51;9.94;81.45
83808;SHT31;73824;40.292;17.998;2024-03-22T02:55:16;9.97;81.44
83808;SHT31;73824;40.292;17.998;2024-03-22T02:57:42;10.03;83.04
83808;SHT31;73824;40.292;17.998;2024-03-22T03:00:08;10.11;82.88
83808;SHT31;73824;40.292;17.998;2024-03-22T03:02:35;10.15;82.86
83808;SHT31;73824;40.292;17.998;2024-03-22T03:05:01;10.14;83.27
83808;SHT31;73824;40.292;17.998;2024-03-22T03:07:27;10.20;83.49
83808;SHT31;73824;40.292;17.998;2024-03-22T03:09:55;10.32;83.23
83808;SHT31;73824;40.292;17.998;2024-03-22T03:12:21;10.34;83.57
83808;SHT31;73824;40.292;17.998;2024-03-22T03:14:46;10.34;83.96
83808;SHT31;73824;40.292;17.998;2024-03-22T03:17:12;10.41;83.77
83808;SHT31;73824;40.292;17.998;2024-03-22T03:19:37;10.44;83.81
83808;SHT31;73824;40.292;17.998;2024-03-22T03:22:03;10.46;83.94
83808;SHT31;73824;40.292;17.998;2024-03-22T03:24:29;10.49;83.94
83808;SHT31;73824;40.292;17.998;2024-03-22T03:26:54;10.56;84.03
83808;SHT31;73824;40.292;17.998;2024-03-22T03:29:20;10.59;84.06
83808;SHT31;73824;40.292;17.998;2024-03-22T03:31:45;10.62;84.22
83808;SHT31;73824;40.292;17.998;2024-03-22T03:34:11;10.66;84.26
83808;SHT31;73824;40.292;17.998;2024-03-22T03:36:37;10.65;84.41
83808;SHT31;73824;40.292;17.998;2024-03-22T03:39:03;10.72;84.24
83808;SHT31;73824;40.292;17.998;2024-03-22T03:41:29;10.68;84.38
83808;SHT31;73824;40.292;17.998;2024-03-22T03:43:54;10.69;84.45
83808;SHT31;73824;40.292;17.998;2024-03-22T03:46:20;10.69;84.42
83808;SHT31;73824;40.292;17.998;2024-03-22T03:48:46;10.69;84.55
83808;SHT31;73824;40.292;17.998;2024-03-22T03:51:11;10.70;84.75
83808;SHT31;73824;40.292;17.998;2024-03-22T03:53:37;10.72;84.64
83808;SHT31;73824;40.292;17.998;2024-03-22T03:56:02;10.76;84.30
83808;SHT31;73824;40.292;17.998;2024-03-22T03:58:28;10.73;84.33
83808;SHT31;73824;40.292;17.998;2024-03-22T04:00:54;10.77;84.24
83808;SHT31;73824;40.292;17.998;2024-03-22T04:03:19;10.76;83.89
83808;SHT31;73824;40.292;17.998;2024-03-22T04:05:45;10.69;83.99
83808;SHT31;73824;40.292;17.998;2024-03-22T04:08:10;10.75;83.87
83808;SHT31;73824;40.292;17.998;2024-03-22T04:10:36;10.66;83.52
83808;SHT31;73824;40.292;17.998;2024-03-22T04:13:02;10.49;84.14
83808;SHT31;73824;40.292;17.998;2024-03-22T04:15:27;10.49;84.25
83808;SHT31;73824;40.292;17.998;2024-03-22T04:17:56;10.48;84.04
83808;SHT31;73824;40.292;17.998;2024-03-22T04:20:21;10.32;83.76
83808;SHT31;73824;40.292;17.998;2024-03-22T04:22:47;10.22;83.70
83808;SHT31;73824;40.292;17.998;2024-03-22T04:25:15;10.27;83.26
83808;SHT31;73824;40.292;17.998;2024-03-22T04:27:41;10.24;83.13
83808;SHT31;73824;40.292;17.998;2024-03-22T04:30:07;10.34;82.73
83808;SHT31;73824;40.292;17.998;2024-03-22T04:32:33;10.34;82.05
83808;SHT31;73824;40.292;17.998;2024-03-22T04:34:59;10.10;81.31
83808;SHT31;73824;40.292;17.998;2024-03-22T04:37:24;10.11;81.14
83808;SHT31;73824;40.292;17.998;2024-03-22T04:39:50;10.11;81.21
83808;SHT31;73824;40.292;17.998;2024-03-22T04:42:15;10.08;81.22
83808;SHT31;73824;40.292;17.998;2024-03-22T04:44:41;10.04;81.26
83808;SHT31;73824;40.292;17.998;2024-03-22T04:47:07;10.03;81.01
83808;SHT31;73824;40.292;17.998;2024-03-22T04:49:33;10.11;80.75
83808;SHT31;73824;40.292;17.998;2024-03-22T04:51:58;10.05;80.44
83808;SHT31;73824;40.292;17.998;2024-03-22T04:54:24;10.13;79.90
83808;SHT31;73824;40.292;17.998;2024-03-22T04:56:50;10.30;79.08
83808;SHT31;73824;40.292;17.998;2024-03-22T04:59:15;10.38;77.74
83808;SHT31;73824;40.292;17.998;2024-03-22T05:01:41;10.38;77.84
83808;SHT31;73824;40.292;17.998;2024-03-22T05:04:07;10.15;78.14
83808;SHT31;73824;40.292;17.998;2024-03-22T05:06:32;10.03;78.49
83808;SHT31;73824;40.292;17.998;2024-03-22T05:08:58;9.93;78.88
83808;SHT31;73824;40.292;17.998;2024-03-22T05:11:26;9.89;79.18
83808;SHT31;73824;40.292;17.998;2024-03-22T05:13:52;9.94;79.22
83808;SHT31;73824;40.292;17.998;2024-03-22T05:16:17;10.11;79.07
83808;SHT31;73824;40.292;17.998;2024-03-22T05:18:43;10.20;79.05
83808;SHT31;73824;40.292;17.998;2024-03-22T05:21:09;10.41;78.97
83808;SHT31;73824;40.292;17.998;2024-03-22T05:23:34;10.51;78.40
83808;SHT31;73824;40.292;17.998;2024-03-22T05:26:00;10.53;78.45
83808;SHT31;73824;40.292;17.998;2024-03-22T05:28:26;10.68;78.02
83808;SHT31;73824;40.292;17.998;2024-03-22T05:30:51;10.68;77.85
83808;SHT31;73824;40.292;17.998;2024-03-22T05:33:17;10.65;77.42
83808;SHT31;73824;40.292;17.998;2024-03-22T05:35:42;10.76;77.01
83808;SHT31;73824;40.292;17.998;2024-03-22T05:38:08;10.88;76.60
83808;SHT31;73824;40.292;17.998;2024-03-22T05:40:36;10.89;76.43
83808;SHT31;73824;40.292;17.998;2024-03-22T05:43:03;10.89;76.70
83808;SHT31;73824;40.292;17.998;2024-03-22T05:45:29;11.03;76.20
83808;SHT31;73824;40.292;17.998;2024-03-22T05:47:54;11.20;75.49
83808;SHT31;73824;40.292;17.998;2024-03-22T05:50:20;11.31;75.19
83808;SHT31;73824;40.292;17.998;2024-03-22T05:52:46;11.41;74.93
83808;SHT31;73824;40.292;17.998;2024-03-22T05:55:11;11.52;74.96
83808;SHT31;73824;40.292;17.998;2024-03-22T05:57:37;11.75;74.42
83808;SHT31;73824;40.292;17.998;2024-03-22T06:00:03;11.85;74.11
83808;SHT31;73824;40.292;17.998;2024-03-22T06:02:28;11.95;74.12
83808;SHT31;73824;40.292;17.998;2024-03-22T06:04:54;12.27;73.63
83808;SHT31;73824;40.292;17.998;2024-03-22T06:07:19;12.67;72.92
83808;SHT31;73824;40.292;17.998;2024-03-22T06:09:45;12.99;71.42
83808;SHT31;73824;40.292;17.998;2024-03-22T06:12:15;13.26;70.66
83808;SHT31;73824;40.292;17.998;2024-03-22T06:14:41;13.30;69.95
83808;SHT31;73824;40.292;17.998;2024-03-22T06:17:10;13.51;70.53
83808;SHT31;73824;40.292;17.998;2024-03-22T06:19:36;13.61;69.83
83808;SHT31;73824;40.292;17.998;2024-03-22T06:22:02;13.57;68.85
83808;SHT31;73824;40.292;17.998;2024-03-22T06:24:28;13.12;70.73
83808;SHT31;73824;40.292;17.998;2024-03-22T06:26:54;13.13;71.42
83808;SHT31;73824;40.292;17.998;2024-03-22T06:29:20;13.54;70.96
83808;SHT31;73824;40.292;17.998;2024-03-22T06:31:46;13.94;69.42
83808;SHT31;73824;40.292;17.998;2024-03-22T06:34:12;14.52;68.19
83808;SHT31;73824;40.292;17.998;2024-03-22T06:36:38;14.94;67.62
83808;SHT31;73824;40.292;17.998;2024-03-22T06:39:03;15.42;65.07
83808;SHT31;73824;40.292;17.998;2024-03-22T06:41:32;15.48;65.78
83808;SHT31;73824;40.292;17.998;2024-03-22T06:43:58;15.50;65.74
83808;SHT31;73824;40.292;17.998;2024-03-22T06:46:24;15.46;65.86
83808;SHT31;73824;40.292;17.998;2024-03-22T06:48:50;15.41;66.59
83808;SHT31;73824;40.292;17.998;2024-03-22T06:51:16;15.86;65.85
83808;SHT31;73824;40.292;17.998;2024-03-22T06:53:44;16.55;63.85
83808;SHT31;73824;40.292;17.998;2024-03-22T06:56:11;16.61;62.91
83808;SHT31;73824;40.292;17.998;2024-03-22T06:58:38;16.51;63.34
83808;SHT31;73824;40.292;17.998;2024-03-22T07:01:10;16.01;65.55
83808;SHT31;73824;40.292;17.998;2024-03-22T07:03:41;15.82;66.34
83808;SHT31;73824;40.292;17.998;2024-03-22T07:06:16;15.69;67.08
83808;SHT31;73824;40.292;17.998;2024-03-22T07:12:11;16.16;67.54
83808;SHT31;73824;40.292;17.998;2024-03-22T07:15:03;18.17;61.07
83808;SHT31;73824;40.292;17.998;2024-03-22T07:17:40;20.35;54.59
83808;SHT31;73824;40.292;17.998;2024-03-22T07:20:07;21.58;51.07
83808;SHT31;73824;40.292;17.998;2024-03-22T07:22:32;22.10;49.30
83808;SHT31;73824;40.292;17.998;2024-03-22T07:24:58;20.93;51.08
83808;SHT31;73824;40.292;17.998;2024-03-22T07:27:29;21.86;49.06
83808;SHT31;73824;40.292;17.998;2024-03-22T07:29:57;23.54;46.02
83808;SHT31;73824;40.292;17.998;2024-03-22T07:32:22;24.73;44.11
83808;SHT31;73824;40.292;17.998;2024-03-22T07:34:48;24.36;43.79
83808;SHT31;73824;40.292;17.998;2024-03-22T07:37:14;24.02;44.35
83808;SHT31;73824;40.292;17.998;2024-03-22T07:39:39;23.13;46.86
83808;SHT31;73824;40.292;17.998;2024-03-22T07:42:08;23.27;46.68
83808;SHT31;73824;40.292;17.998;2024-03-22T07:44:37;21.07;51.43
83808;SHT31;73824;40.292;17.998;2024-03-22T07:47:02;20.19;54.54
83808;SHT31;73824;40.292;17.998;2024-03-22T07:49:28;19.85;56.07
83808;SHT31;73824;40.292;17.998;2024-03-22T07:51:54;19.49;56.74
83808;SHT31;73824;40.292;17.998;2024-03-22T07:54:20;20.14;55.07
83808;SHT31;73824;40.292;17.998;2024-03-22T07:56:46;20.05;55.03
83808;SHT31;73824;40.292;17.998;2024-03-22T07:59:12;21.48;52.23
83808;SHT31;73824;40.292;17.998;2024-03-22T08:01:37;21.20;51.66
83808;SHT31;73824;40.292;17.998;2024-03-22T08:04:03;22.36;48.70
83808;SHT31;73824;40.292;17.998;2024-03-22T08:06:29;22.64;47.54
83808;SHT31;73824;40.292;17.998;2024-03-22T08:08:55;21.63;48.51
83808;SHT31;73824;40.292;17.998;2024-03-22T08:11:20;22.24;48.22
83808;SHT31;73824;40.292;17.998;2024-03-22T08:13:46;22.72;47.53
83808;SHT31;73824;40.292;17.998;2024-03-22T08:16:12;23.26;46.15
83808;SHT31;73824;40.292;17.998;2024-03-22T08:18:37;21.24;50.14
83808;SHT31;73824;40.292;17.998;2024-03-22T08:21:03;20.38;53.60
83808;SHT31;73824;40.292;17.998;2024-03-22T08:23:29;20.29;54.73
83808;SHT31;73824;40.292;17.998;2024-03-22T08:25:55;19.82;55.33
83808;SHT31;73824;40.292;17.998;2024-03-22T08:28:22;19.94;55.68
83808;SHT31;73824;40.292;17.998;2024-03-22T08:30:54;19.91;54.50
83808;SHT31;73824;40.292;17.998;2024-03-22T08:33:20;20.09;54.46
83808;SHT31;73824;40.292;17.998;2024-03-22T08:35:45;19.78;55.58
83808;SHT31;73824;40.292;17.998;2024-03-22T08:38:11;19.66;56.71
83808;SHT31;73824;40.292;17.998;2024-03-22T08:40:46;19.40;56.92
83808;SHT31;73824;40.292;17.998;2024-03-22T08:43:11;19.42;56.43
83808;SHT31;73824;40.292;17.998;2024-03-22T08:45:55;18.65;58.59
83808;SHT31;73824;40.292;17.998;2024-03-22T08:49:22;18.91;56.93
83808;SHT31;73824;40.292;17.998;2024-03-22T08:51:22;19.45;53.43
83808;SHT31;73824;40.292;17.998;2024-03-22T08:53:48;19.45;53.31
83808;SHT31;73824;40.292;17.998;2024-03-22T08:56:25;20.30;50.80
83808;SHT31;73824;40.292;17.998;2024-03-22T08:58:51;21.18;48.55
83808;SHT31;73824;40.292;17.998;2024-03-22T09:01:22;22.24;47.14
83808;SHT31;73824;40.292;17.998;2024-03-22T09:03:48;22.89;46.12
83808;SHT31;73824;40.292;17.998;2024-03-22T09:06:16;23.72;43.87
83808;SHT31;73824;40.292;17.998;2024-03-22T09:08:51;21.35;46.83
83808;SHT31;73824;40.292;17.998;2024-03-22T09:11:17;20.28;49.11
83808;SHT31;73824;40.292;17.998;2024-03-22T09:13:43;19.81;50.63
83808;SHT31;73824;40.292;17.998;2024-03-22T09:16:15;19.97;49.73
83808;SHT31;73824;40.292;17.998;2024-03-22T09:18:44;20.50;47.95
83808;SHT31;73824;40.292;17.998;2024-03-22T09:21:12;20.79;49.38
83808;SHT31;73824;40.292;17.998;2024-03-22T09:23:41;19.81;49.75
83808;SHT31;73824;40.292;17.998;2024-03-22T09:26:06;20.28;49.33
83808;SHT31;73824;40.292;17.998;2024-03-22T09:28:32;19.81;51.44
83808;SHT31;73824;40.292;17.998;2024-03-22T09:31:02;20.19;49.95
83808;SHT31;73824;40.292;17.998;2024-03-22T09:33:28;20.73;49.70
83808;SHT31;73824;40.292;17.998;2024-03-22T09:35:54;21.39;49.01
83808;SHT31;73824;40.292;17.998;2024-03-22T09:38:20;20.67;50.12
83808;SHT31;73824;40.292;17.998;2024-03-22T09:40:49;21.00;49.42
83808;SHT31;73824;40.292;17.998;2024-03-22T09:43:20;22.52;46.28
83808;SHT31;73824;40.292;17.998;2024-03-22T09:45:47;20.56;49.76
83808;SHT31;73824;40.292;17.998;2024-03-22T09:48:14;20.77;49.39
83808;SHT31;73824;40.292;17.998;2024-03-22T09:50:40;19.59;53.28
83808;SHT31;73824;40.292;17.998;2024-03-22T09:53:08;19.23;54.28
83808;SHT31;73824;40.292;17.998;2024-03-22T09:55:37;18.51;56.34
83808;SHT31;73824;40.292;17.998;2024-03-22T09:58:12;18.38;57.05
83808;SHT31;73824;40.292;17.998;2024-03-22T10:00:38;17.96;58.40
83808;SHT31;73824;40.292;17.998;2024-03-22T10:03:16;18.60;56.68
83808;SHT31;73824;40.292;17.998;2024-03-22T10:05:42;17.64;59.46
83808;SHT31;73824;40.292;17.998;2024-03-22T10:08:07;18.08;58.55
83808;SHT31;73824;40.292;17.998;2024-03-22T10:10:33;17.88;59.09
83808;SHT31;73824;40.292;17.998;2024-03-22T10:13:09;17.72;59.78
83808;SHT31;73824;40.292;17.998;2024-03-22T10:15:34;17.61;60.12
83808;SHT31;73824;40.292;17.998;2024-03-22T10:18:00;17.37;60.56
83808;SHT31;73824;40.292;17.998;2024-03-22T10:20:26;17.17;62.03
83808;SHT31;73824;40.292;17.998;2024-03-22T10:22:58;17.06;62.53
83808;SHT31;73824;40.292;17.998;2024-03-22T10:25:28;16.83;63.29
83808;SHT31;73824;40.292;17.998;2024-03-22T10:27:57;17.35;62.66
83808;SHT31;73824;40.292;17.998;2024-03-22T10:30:33;17.31;62.14
83808;SHT31;73824;40.292;17.998;2024-03-22T10:33:01;17.26;62.50
83808;SHT31;73824;40.292;17.998;2024-03-22T10:35:27;17.28;63.09
83808;SHT31;73824;40.292;17.998;2024-03-22T10:37:53;17.34;63.16
83808;SHT31;73824;40.292;17.998;2024-03-22T10:40:23;17.28;63.00
83808;SHT31;73824;40.292;17.998;2024-03-22T10:42:49;17.48;63.14
83808;SHT31;73824;40.292;17.998;2024-03-22T10:45:20;17.78;61.89
83808;SHT31;73824;40.292;17.998;2024-03-22T10:47:53;17.65;61.30
83808;SHT31;73824;40.292;17.998;2024-03-22T10:50:22;17.98;61.29
83808;SHT31;73824;40.292;17.998;2024-03-22T10:52:55;17.69;61.60
83808;SHT31;73824;40.292;17.998;2024-03-22T10:55:37;17.55;61.20
83808;SHT31;73824;40.292;17.998;2024-03-22T10:58:04;17.68;61.41
83808;SHT31;73824;40.292;17.998;2024-03-22T11:00:31;18.13;60.30
83808;SHT31;73824;40.292;17.998;2024-03-22T11:03:04;18.87;58.75
83808;SHT31;73824;40.292;17.998;2024-03-22T11:05:33;19.32;56.68
83808;SHT31;73824;40.292;17.998;2024-03-22T11:10:33;19.64;56.33
83808;SHT31;73824;40.292;17.998;2024-03-22T11:13:06;18.83;56.27
83808;SHT31;73824;40.292;17.998;2024-03-22T11:15:41;19.20;54.97
83808;SHT31;73824;40.292;17.998;2024-03-22T11:18:11;18.88;56.14
83808;SHT31;73824;40.292;17.998;2024-03-22T11:20:45;18.50;57.94
83808;SHT31;73824;40.292;17.998;2024-03-22T11:26:17;19.02;55.75
83808;SHT31;73824;40.292;17.998;2024-03-22T11:28:43;19.12;55.57
83808;SHT31;73824;40.292;17.998;2024-03-22T11:31:08;18.81;55.36
83808;SHT31;73824;40.292;17.998;2024-03-22T11:33:34;18.94;53.32
83808;SHT31;73824;40.292;17.998;2024-03-22T11:36:01;18.65;54.33
83808;SHT31;73824;40.292;17.998;2024-03-22T11:38:34;19.20;53.85
83808;SHT31;73824;40.292;17.998;2024-03-22T11:41:06;18.91;54.98
83808;SHT31;73824;40.292;17.998;2024-03-22T11:43:32;18.65;55.74
83808;SHT31;73824;40.292;17.998;2024-03-22T11:46:04;19.59;53.39
83808;SHT31;73824;40.292;17.998;2024-03-22T11:48:33;19.27;53.45
83808;SHT31;73824;40.292;17.998;2024-03-22T11:51:01;18.54;56.37
83808;SHT31;73824;40.292;17.998;2024-03-22T11:53:27;18.53;57.63
83808;SHT31;73824;40.292;17.998;2024-03-22T11:55:53;18.19;58.91
83808;SHT31;73824;40.292;17.998;2024-03-22T11:58:19;18.00;59.37
83808;SHT31;73824;40.292;17.998;2024-03-22T12:00:45;17.99;59.44
83808;SHT31;73824;40.292;17.998;2024-03-22T12:03:10;18.13;58.74
83808;SHT31;73824;40.292;17.998;2024-03-22T12:05:36;18.26;57.54
83808;SHT31;73824;40.292;17.998;2024-03-22T12:08:02;18.30;57.79
83808;SHT31;73824;40.292;17.998;2024-03-22T12:10:28;18.47;57.85
83808;SHT31;73824;40.292;17.998;2024-03-22T12:12:54;19.04;56.64
83808;SHT31;73824;40.292;17.998;2024-03-22T12:15:26;18.40;56.64
83808;SHT31;73824;40.292;17.998;2024-03-22T12:17:52;17.90;58.26
83808;SHT31;73824;40.292;17.998;2024-03-22T12:20:18;17.90;58.55
83808;SHT31;73824;40.292;17.998;2024-03-22T12:22:47;18.48;56.50
83808;SHT31;73824;40.292;17.998;2024-03-22T12:25:13;18.36;55.72
83808;SHT31;73824;40.292;17.998;2024-03-22T12:27:39;18.69;55.49
83808;SHT31;73824;40.292;17.998;2024-03-22T12:30:05;19.09;55.39
83808;SHT31;73824;40.292;17.998;2024-03-22T12:32:31;18.89;55.70
83808;SHT31;73824;40.292;17.998;2024-03-22T12:35:00;18.72;55.78
83808;SHT31;73824;40.292;17.998;2024-03-22T12:37:26;18.50;54.99
83808;SHT31;73824;40.292;17.998;2024-03-22T12:39:52;18.54;57.07
83808;SHT31;73824;40.292;17.998;2024-03-22T12:42:18;19.43;55.03
83808;SHT31;73824;40.292;17.998;2024-03-22T12:44:44;18.96;55.69
83808;SHT31;73824;40.292;17.998;2024-03-22T12:47:09;17.95;57.81
83808;SHT31;73824;40.292;17.998;2024-03-22T12:49:35;17.92;55.93
83808;SHT31;73824;40.292;17.998;2024-03-22T12:52:01;17.90;56.65
83808;SHT31;73824;40.292;17.998;2024-03-22T12:54:27;18.41;56.37
83808;SHT31;73824;40.292;17.998;2024-03-22T12:56:53;19.08;54.79
83808;SHT31;73824;40.292;17.998;2024-03-22T12:59:19;18.91;52.62
83808;SHT31;73824;40.292;17.998;2024-03-22T13:01:44;19.15;54.22
83808;SHT31;73824;40.292;17.998;2024-03-22T13:04:10;19.82;54.12
83808;SHT31;73824;40.292;17.998;2024-03-22T13:06:36;19.73;54.59
83808;SHT31;73824;40.292;17.998;2024-03-22T13:09:02;18.91;56.74
83808;SHT31;73824;40.292;17.998;2024-03-22T13:11:35;19.22;55.17
83808;SHT31;73824;40.292;17.998;2024-03-22T13:14:00;19.26;54.36
83808;SHT31;73824;40.292;17.998;2024-03-22T13:16:46;19.26;53.37
83808;SHT31;73824;40.292;17.998;2024-03-22T13:19:15;19.39;53.71
83808;SHT31;73824;40.292;17.998;2024-03-22T13:21:53;18.89;55.82
83808;SHT31;73824;40.292;17.998;2024-03-22T13:24:19;19.53;54.13
83808;SHT31;73824;40.292;17.998;2024-03-22T13:26:44;19.69;53.67
83808;SHT31;73824;40.292;17.998;2024-03-22T13:29:11;19.39;54.92
83808;SHT31;73824;40.292;17.998;2024-03-22T13:31:39;20.04;53.72
83808;SHT31;73824;40.292;17.998;2024-03-22T13:34:07;18.98;55.49
83808;SHT31;73824;40.292;17.998;2024-03-22T13:36:36;19.29;56.15
83808;SHT31;73824;40.292;17.998;2024-03-22T13:39:04;19.37;55.52
83808;SHT31;73824;40.292;17.998;2024-03-22T13:41:30;19.32;54.88
83808;SHT31;73824;40.292;17.998;2024-03-22T13:43:58;18.87;55.30
83808;SHT31;73824;40.292;17.998;2024-03-22T13:46:49;19.69;54.61
83808;SHT31;73824;40.292;17.998;2024-03-22T13:49:18;20.08;53.72
83808;SHT31;73824;40.292;17.998;2024-03-22T13:51:47;20.19;53.80
83808;SHT31;73824;40.292;17.998;2024-03-22T13:54:18;19.49;54.91
83808;SHT31;73824;40.292;17.998;2024-03-22T13:56:47;19.34;54.71
83808;SHT31;73824;40.292;17.998;2024-03-22T13:59:13;19.34;54.00
83808;SHT31;73824;40.292;17.998;2024-03-22T14:04:18;19.90;53.35
83808;SHT31;73824;40.292;17.998;2024-03-22T14:06:54;19.42;54.07
83808;SHT31;73824;40.292;17.998;2024-03-22T14:09:26;18.94;55.86
83808;SHT31;73824;40.292;17.998;2024-03-22T14:11:52;19.06;55.94
83808;SHT31;73824;40.292;17.998;2024-03-22T14:14:19;19.01;55.69
83808;SHT31;73824;40.292;17.998;2024-03-22T14:16:45;19.12;54.81
83808;SHT31;73824;40.292;17.998;2024-03-22T14:19:10;19.91;54.04
83808;SHT31;73824;40.292;17.998;2024-03-22T14:21:36;19.57;54.51
83808;SHT31;73824;40.292;17.998;2024-03-22T14:24:04;19.84;54.05
83808;SHT31;73824;40.292;17.998;2024-03-22T14:26:30;20.07;53.02
83808;SHT31;73824;40.292;17.998;2024-03-22T14:28:55;19.67;54.28
83808;SHT31;73824;40.292;17.998;2024-03-22T14:31:21;19.20;55.29
83808;SHT31;73824;40.292;17.998;2024-03-22T14:33:47;19.43;54.06
83808;SHT31;73824;40.292;17.998;2024-03-22T14:36:19;18.87;54.36
83808;SHT31;73824;40.292;17.998;2024-03-22T14:38:51;19.22;55.23
83808;SHT31;73824;40.292;17.998;2024-03-22T14:41:19;19.27;55.63
83808;SHT31;73824;40.292;17.998;2024-03-22T14:43:45;19.04;56.23
83808;SHT31;73824;40.292;17.998;2024-03-22T14:46:11;18.54;56.06
83808;SHT31;73824;40.292;17.998;2024-03-22T14:48:36;18.47;55.22
83808;SHT31;73824;40.292;17.998;2024-03-22T14:51:05;18.71;55.17
83808;SHT31;73824;40.292;17.998;2024-03-22T14:53:35;18.79;55.52
83808;SHT31;73824;40.292;17.998;2024-03-22T14:56:04;18.40;55.56
83808;SHT31;73824;40.292;17.998;2024-03-22T15:01:23;18.68;55.29
83808;SHT31;73824;40.292;17.998;2024-03-22T15:03:48;18.40;56.77
83808;SHT31;73824;40.292;17.998;2024-03-22T15:06:15;18.61;55.93
83808;SHT31;73824;40.292;17.998;2024-03-22T15:08:41;18.33;55.39
83808;SHT31;73824;40.292;17.998;2024-03-22T15:11:07;18.43;55.38
83808;SHT31;73824;40.292;17.998;2024-03-22T15:13:32;18.44;55.86
83808;SHT31;73824;40.292;17.998;2024-03-22T15:15:59;18.46;57.20
83808;SHT31;73824;40.292;17.998;2024-03-22T15:18:25;18.47;57.08
83808;SHT31;73824;40.292;17.998;2024-03-22T15:20:54;18.54;56.49
83808;SHT31;73824;40.292;17.998;2024-03-22T15:23:20;18.43;57.48
83808;SHT31;73824;40.292;17.998;2024-03-22T15:25:49;18.67;56.70
83808;SHT31;73824;40.292;17.998;2024-03-22T15:28:15;18.75;56.61
83808;SHT31;73824;40.292;17.998;2024-03-22T15:30:41;18.38;58.03
83808;SHT31;73824;40.292;17.998;2024-03-22T15:33:15;18.40;58.19